sensor_id;sensor_type;location;lat;lon;timestamp;pressure;altitude;pressure_sealevel;temperature
56286;BMP180;42191;47.562;9.686;2023-04-03T00:00:17;97147.00;;;11.90
56286;BMP180;42191;47.562;9.686;2023-04-03T00:02:43;97157.00;;;11.80
56286;BMP180;42191;47.562;9.686;2023-04-03T00:05:09;97165.00;;;11.80
56286;BMP180;42191;47.562;9.686;2023-04-03T00:07:35;97167.00;;;11.70
56286;BMP180;42191;47.562;9.686;2023-04-03T00:10:02;97150.00;;;11.70
56286;BMP180;42191;47.562;9.686;2023-04-03T00:12:28;97155.00;;;11.70
56286;BMP180;42191;47.562;9.686;2023-04-03T00:14:54;97160.00;;;11.70
56286;BMP180;42191;47.562;9.686;2023-04-03T00:17:20;97160.00;;;11.60
56286;BMP180;42191;47.562;9.686;2023-04-03T00:19:47;97162.00;;;11.60
56286;BMP180;42191;47.562;9.686;2023-04-03T00:22:13;97161.00;;;11.50
56286;BMP180;42191;47.562;9.686;2023-04-03T00:24:39;97157.00;;;11.50
56286;BMP180;42191;47.562;9.686;2023-04-03T00:27:05;97164.00;;;11.50
56286;BMP180;42191;47.562;9.686;2023-04-03T00:29:31;97169.00;;;11.40
56286;BMP180;42191;47.562;9.686;2023-04-03T00:31:57;97183.00;;;11.40
56286;BMP180;42191;47.562;9.686;2023-04-03T00:34:24;97181.00;;;11.30
56286;BMP180;42191;47.562;9.686;2023-04-03T00:36:51;97177.00;;;11.30
56286;BMP180;42191;47.562;9.686;2023-04-03T00:39:17;97183.00;;;11.30
56286;BMP180;42191;47.562;9.686;2023-04-03T00:41:43;97178.00;;;11.20
56286;BMP180;42191;47.562;9.686;2023-04-03T00:46:54;97192.00;;;11.20
56286;BMP180;42191;47.562;9.686;2023-04-03T00:49:20;97192.00;;;11.10
56286;BMP180;42191;47.562;9.686;2023-04-03T00:51:47;97184.00;;;11.10
56286;BMP180;42191;47.562;9.686;2023-04-03T00:54:13;97194.00;;;11.00
56286;BMP180;42191;47.562;9.686;2023-04-03T00:56:39;97194.00;;;11.00
56286;BMP180;42191;47.562;9.686;2023-04-03T00:59:17;97196.00;;;11.00
56286;BMP180;42191;47.562;9.686;2023-04-03T01:01:48;97190.00;;;10.90
56286;BMP180;42191;47.562;9.686;2023-04-03T01:04:34;97198.00;;;10.90
56286;BMP180;42191;47.562;9.686;2023-04-03T01:09:38;97193.00;;;10.80
56286;BMP180;42191;47.562;9.686;2023-04-03T01:12:35;97208.00;;;10.70
56286;BMP180;42191;47.562;9.686;2023-04-03T01:15:14;97220.00;;;10.70
56286;BMP180;42191;47.562;9.686;2023-04-03T01:17:43;97208.00;;;10.60
56286;BMP180;42191;47.562;9.686;2023-04-03T01:25:46;97216.00;;;10.40
56286;BMP180;42191;47.562;9.686;2023-04-03T01:28:27;97214.00;;;10.40
56286;BMP180;42191;47.562;9.686;2023-04-03T01:33:35;97206.00;;;10.20
56286;BMP180;42191;47.562;9.686;2023-04-03T01:36:03;97217.00;;;10.20
56286;BMP180;42191;47.562;9.686;2023-04-03T01:38:30;97219.00;;;10.10
56286;BMP180;42191;47.562;9.686;2023-04-03T01:40:57;97218.00;;;10.10
56286;BMP180;42191;47.562;9.686;2023-04-03T01:43:23;97222.00;;;10.00
56286;BMP180;42191;47.562;9.686;2023-04-03T01:45:49;97228.00;;;9.90
56286;BMP180;42191;47.562;9.686;2023-04-03T01:48:16;97236.00;;;9.90
56286;BMP180;42191;47.562;9.686;2023-04-03T01:50:42;97229.00;;;9.80
56286;BMP180;42191;47.562;9.686;2023-04-03T01:53:08;97225.00;;;9.80
56286;BMP180;42191;47.562;9.686;2023-04-03T01:55:34;97229.00;;;9.70
56286;BMP180;42191;47.562;9.686;2023-04-03T01:58:00;97223.00;;;9.70
56286;BMP180;42191;47.562;9.686;2023-04-03T02:00:26;97229.00;;;9.60
56286;BMP180;42191;47.562;9.686;2023-04-03T02:02:53;97240.00;;;9.60
56286;BMP180;42191;47.562;9.686;2023-04-03T02:05:19;97255.00;;;9.50
56286;BMP180;42191;47.562;9.686;2023-04-03T02:07:45;97253.00;;;9.50
56286;BMP180;42191;47.562;9.686;2023-04-03T02:10:12;97242.00;;;9.40
56286;BMP180;42191;47.562;9.686;2023-04-03T02:12:38;97259.00;;;9.40
56286;BMP180;42191;47.562;9.686;2023-04-03T02:15:04;97254.00;;;9.30
56286;BMP180;42191;47.562;9.686;2023-04-03T02:17:31;97259.00;;;9.30
56286;BMP180;42191;47.562;9.686;2023-04-03T02:19:57;97255.00;;;9.30
56286;BMP180;42191;47.562;9.686;2023-04-03T02:22:23;97261.00;;;9.20
56286;BMP180;42191;47.562;9.686;2023-04-03T02:24:49;97264.00;;;9.20
56286;BMP180;42191;47.562;9.686;2023-04-03T02:27:15;97257.00;;;9.10
56286;BMP180;42191;47.562;9.686;2023-04-03T02:29:41;97253.00;;;9.00
56286;BMP180;42191;47.562;9.686;2023-04-03T02:32:08;97255.00;;;9.00
56286;BMP180;42191;47.562;9.686;2023-04-03T02:34:34;97261.00;;;9.00
56286;BMP180;42191;47.562;9.686;2023-04-03T02:37:00;97258.00;;;8.90
56286;BMP180;42191;47.562;9.686;2023-04-03T02:39:26;97246.00;;;8.90
56286;BMP180;42191;47.562;9.686;2023-04-03T02:41:52;97249.00;;;8.80
56286;BMP180;42191;47.562;9.686;2023-04-03T02:44:19;97254.00;;;8.80
56286;BMP180;42191;47.562;9.686;2023-04-03T02:46:45;97252.00;;;8.70
56286;BMP180;42191;47.562;9.686;2023-04-03T02:49:11;97239.00;;;8.70
56286;BMP180;42191;47.562;9.686;2023-04-03T02:51:37;97245.00;;;8.60
56286;BMP180;42191;47.562;9.686;2023-04-03T02:54:03;97245.00;;;8.60
56286;BMP180;42191;47.562;9.686;2023-04-03T02:56:30;97247.00;;;8.50
56286;BMP180;42191;47.562;9.686;2023-04-03T02:58:56;97256.00;;;8.40
56286;BMP180;42191;47.562;9.686;2023-04-03T03:01:22;97255.00;;;8.40
56286;BMP180;42191;47.562;9.686;2023-04-03T03:03:48;97261.00;;;8.30
56286;BMP180;42191;47.562;9.686;2023-04-03T03:06:16;97260.00;;;8.30
56286;BMP180;42191;47.562;9.686;2023-04-03T03:08:42;97273.00;;;8.20
56286;BMP180;42191;47.562;9.686;2023-04-03T03:11:09;97249.00;;;8.20
56286;BMP180;42191;47.562;9.686;2023-04-03T03:13:36;97260.00;;;8.10
56286;BMP180;42191;47.562;9.686;2023-04-03T03:16:03;97248.00;;;8.10
56286;BMP180;42191;47.562;9.686;2023-04-03T03:18:29;97252.00;;;8.10
56286;BMP180;42191;47.562;9.686;2023-04-03T03:20:58;97261.00;;;8.10
56286;BMP180;42191;47.562;9.686;2023-04-03T03:23:25;97260.00;;;8.10
56286;BMP180;42191;47.562;9.686;2023-04-03T03:26:11;97248.00;;;8.10
56286;BMP180;42191;47.562;9.686;2023-04-03T03:28:38;97261.00;;;8.10
56286;BMP180;42191;47.562;9.686;2023-04-03T03:31:05;97262.00;;;8.10
56286;BMP180;42191;47.562;9.686;2023-04-03T03:33:32;97260.00;;;8.10
56286;BMP180;42191;47.562;9.686;2023-04-03T03:35:59;97254.00;;;8.20
56286;BMP180;42191;47.562;9.686;2023-04-03T03:38:25;97265.00;;;8.20
56286;BMP180;42191;47.562;9.686;2023-04-03T03:40:52;97275.00;;;8.20
56286;BMP180;42191;47.562;9.686;2023-04-03T03:43:18;97260.00;;;8.20
56286;BMP180;42191;47.562;9.686;2023-04-03T03:45:49;97270.00;;;8.20
56286;BMP180;42191;47.562;9.686;2023-04-03T03:48:15;97271.00;;;8.30
56286;BMP180;42191;47.562;9.686;2023-04-03T03:50:41;97274.00;;;8.30
56286;BMP180;42191;47.562;9.686;2023-04-03T03:53:08;97277.00;;;8.30
56286;BMP180;42191;47.562;9.686;2023-04-03T03:55:34;97278.00;;;8.30
56286;BMP180;42191;47.562;9.686;2023-04-03T03:58:00;97288.00;;;8.30
56286;BMP180;42191;47.562;9.686;2023-04-03T04:00:27;97287.00;;;8.30
56286;BMP180;42191;47.562;9.686;2023-04-03T04:02:53;97293.00;;;8.30
56286;BMP180;42191;47.562;9.686;2023-04-03T04:05:19;97283.00;;;8.30
56286;BMP180;42191;47.562;9.686;2023-04-03T04:07:45;97285.00;;;8.30
56286;BMP180;42191;47.562;9.686;2023-04-03T04:10:11;97275.00;;;8.30
56286;BMP180;42191;47.562;9.686;2023-04-03T04:12:39;97286.00;;;8.30
56286;BMP180;42191;47.562;9.686;2023-04-03T04:15:06;97284.00;;;8.30
56286;BMP180;42191;47.562;9.686;2023-04-03T04:17:32;97286.00;;;8.30
56286;BMP180;42191;47.562;9.686;2023-04-03T04:19:58;97287.00;;;8.30
56286;BMP180;42191;47.562;9.686;2023-04-03T04:22:24;97279.00;;;8.30
56286;BMP180;42191;47.562;9.686;2023-04-03T04:24:50;97289.00;;;8.30
56286;BMP180;42191;47.562;9.686;2023-04-03T04:27:17;97285.00;;;8.30
56286;BMP180;42191;47.562;9.686;2023-04-03T04:29:43;97280.00;;;8.30
56286;BMP180;42191;47.562;9.686;2023-04-03T04:32:09;97281.00;;;8.30
56286;BMP180;42191;47.562;9.686;2023-04-03T04:34:35;97277.00;;;8.30
56286;BMP180;42191;47.562;9.686;2023-04-03T04:37:01;97279.00;;;8.30
56286;BMP180;42191;47.562;9.686;2023-04-03T04:39:27;97277.00;;;8.40
56286;BMP180;42191;47.562;9.686;2023-04-03T04:41:53;97281.00;;;8.40
56286;BMP180;42191;47.562;9.686;2023-04-03T04:44:19;97297.00;;;8.40
56286;BMP180;42191;47.562;9.686;2023-04-03T04:46:46;97295.00;;;8.40
56286;BMP180;42191;47.562;9.686;2023-04-03T04:49:12;97279.00;;;8.40
56286;BMP180;42191;47.562;9.686;2023-04-03T04:51:38;97292.00;;;8.40
56286;BMP180;42191;47.562;9.686;2023-04-03T04:54:04;97298.00;;;8.50
56286;BMP180;42191;47.562;9.686;2023-04-03T04:56:31;97296.00;;;8.50
56286;BMP180;42191;47.562;9.686;2023-04-03T04:58:57;97297.00;;;8.50
56286;BMP180;42191;47.562;9.686;2023-04-03T05:01:23;97282.00;;;8.50
56286;BMP180;42191;47.562;9.686;2023-04-03T05:03:49;97287.00;;;8.50
56286;BMP180;42191;47.562;9.686;2023-04-03T05:06:15;97289.00;;;8.50
56286;BMP180;42191;47.562;9.686;2023-04-03T05:08:41;97284.00;;;8.50
56286;BMP180;42191;47.562;9.686;2023-04-03T05:11:07;97291.00;;;8.60
56286;BMP180;42191;47.562;9.686;2023-04-03T05:13:33;97289.00;;;8.60
56286;BMP180;42191;47.562;9.686;2023-04-03T05:16:00;97292.00;;;8.60
56286;BMP180;42191;47.562;9.686;2023-04-03T05:18:26;97292.00;;;8.60
56286;BMP180;42191;47.562;9.686;2023-04-03T05:20:52;97294.00;;;8.60
56286;BMP180;42191;47.562;9.686;2023-04-03T05:23:19;97296.00;;;8.60
56286;BMP180;42191;47.562;9.686;2023-04-03T05:25:45;97284.00;;;8.60
56286;BMP180;42191;47.562;9.686;2023-04-03T05:28:12;97297.00;;;8.70
56286;BMP180;42191;47.562;9.686;2023-04-03T05:30:38;97296.00;;;8.70
56286;BMP180;42191;47.562;9.686;2023-04-03T05:33:05;97306.00;;;8.70
56286;BMP180;42191;47.562;9.686;2023-04-03T05:35:32;97297.00;;;8.70
56286;BMP180;42191;47.562;9.686;2023-04-03T05:37:58;97301.00;;;8.70
56286;BMP180;42191;47.562;9.686;2023-04-03T05:40:24;97305.00;;;8.80
56286;BMP180;42191;47.562;9.686;2023-04-03T05:42:51;97308.00;;;8.80
56286;BMP180;42191;47.562;9.686;2023-04-03T05:45:19;97304.00;;;8.80
56286;BMP180;42191;47.562;9.686;2023-04-03T05:47:45;97305.00;;;8.80
56286;BMP180;42191;47.562;9.686;2023-04-03T05:50:11;97313.00;;;8.80
56286;BMP180;42191;47.562;9.686;2023-04-03T05:52:40;97306.00;;;8.80
56286;BMP180;42191;47.562;9.686;2023-04-03T05:55:08;97308.00;;;8.90
56286;BMP180;42191;47.562;9.686;2023-04-03T05:57:34;97320.00;;;8.90
56286;BMP180;42191;47.562;9.686;2023-04-03T06:00:00;97313.00;;;8.90
56286;BMP180;42191;47.562;9.686;2023-04-03T06:02:26;97318.00;;;8.90
56286;BMP180;42191;47.562;9.686;2023-04-03T06:04:52;97311.00;;;8.90
56286;BMP180;42191;47.562;9.686;2023-04-03T06:07:21;97321.00;;;9.00
56286;BMP180;42191;47.562;9.686;2023-04-03T06:09:49;97325.00;;;9.00
56286;BMP180;42191;47.562;9.686;2023-04-03T06:12:15;97315.00;;;9.00
56286;BMP180;42191;47.562;9.686;2023-04-03T06:14:42;97329.00;;;9.00
56286;BMP180;42191;47.562;9.686;2023-04-03T06:17:08;97323.00;;;9.10
56286;BMP180;42191;47.562;9.686;2023-04-03T06:19:35;97319.00;;;9.10
56286;BMP180;42191;47.562;9.686;2023-04-03T06:22:01;97321.00;;;9.10
56286;BMP180;42191;47.562;9.686;2023-04-03T06:24:29;97320.00;;;9.10
56286;BMP180;42191;47.562;9.686;2023-04-03T06:26:56;97321.00;;;9.10
56286;BMP180;42191;47.562;9.686;2023-04-03T06:29:24;97323.00;;;9.10
56286;BMP180;42191;47.562;9.686;2023-04-03T06:31:51;97328.00;;;9.20
56286;BMP180;42191;47.562;9.686;2023-04-03T06:34:17;97320.00;;;9.20
56286;BMP180;42191;47.562;9.686;2023-04-03T06:36:44;97329.00;;;9.20
56286;BMP180;42191;47.562;9.686;2023-04-03T06:39:17;97330.00;;;9.30
56286;BMP180;42191;47.562;9.686;2023-04-03T06:41:44;97321.00;;;9.30
56286;BMP180;42191;47.562;9.686;2023-04-03T06:44:10;97332.00;;;9.30
56286;BMP180;42191;47.562;9.686;2023-04-03T06:46:38;97332.00;;;9.30
56286;BMP180;42191;47.562;9.686;2023-04-03T06:49:05;97329.00;;;9.40
56286;BMP180;42191;47.562;9.686;2023-04-03T06:51:35;97331.00;;;9.40
56286;BMP180;42191;47.562;9.686;2023-04-03T06:54:02;97324.00;;;9.40
56286;BMP180;42191;47.562;9.686;2023-04-03T06:56:29;97326.00;;;9.40
56286;BMP180;42191;47.562;9.686;2023-04-03T06:58:56;97323.00;;;9.50
56286;BMP180;42191;47.562;9.686;2023-04-03T07:01:27;97319.00;;;9.50
56286;BMP180;42191;47.562;9.686;2023-04-03T07:03:54;97324.00;;;9.60
56286;BMP180;42191;47.562;9.686;2023-04-03T07:06:21;97320.00;;;9.60
56286;BMP180;42191;47.562;9.686;2023-04-03T07:08:47;97326.00;;;9.70
56286;BMP180;42191;47.562;9.686;2023-04-03T07:11:15;97327.00;;;9.70
56286;BMP180;42191;47.562;9.686;2023-04-03T07:13:41;97329.00;;;9.80
56286;BMP180;42191;47.562;9.686;2023-04-03T07:16:08;97341.00;;;9.90
56286;BMP180;42191;47.562;9.686;2023-04-03T07:18:35;97348.00;;;9.90
56286;BMP180;42191;47.562;9.686;2023-04-03T07:21:02;97337.00;;;9.90
56286;BMP180;42191;47.562;9.686;2023-04-03T07:23:29;97350.00;;;10.00
56286;BMP180;42191;47.562;9.686;2023-04-03T07:25:55;97344.00;;;10.00
56286;BMP180;42191;47.562;9.686;2023-04-03T07:28:22;97334.00;;;10.10
56286;BMP180;42191;47.562;9.686;2023-04-03T07:33:26;97340.00;;;10.10
56286;BMP180;42191;47.562;9.686;2023-04-03T07:35:52;97346.00;;;10.20
56286;BMP180;42191;47.562;9.686;2023-04-03T07:38:18;97355.00;;;10.20
56286;BMP180;42191;47.562;9.686;2023-04-03T07:40:49;97349.00;;;10.20
56286;BMP180;42191;47.562;9.686;2023-04-03T07:43:17;97350.00;;;10.30
56286;BMP180;42191;47.562;9.686;2023-04-03T07:45:43;97357.00;;;10.30
56286;BMP180;42191;47.562;9.686;2023-04-03T07:48:10;97355.00;;;10.40
56286;BMP180;42191;47.562;9.686;2023-04-03T07:50:37;97357.00;;;10.40
56286;BMP180;42191;47.562;9.686;2023-04-03T07:53:03;97358.00;;;10.50
56286;BMP180;42191;47.562;9.686;2023-04-03T07:55:32;97357.00;;;10.50
56286;BMP180;42191;47.562;9.686;2023-04-03T07:57:58;97371.00;;;10.60
56286;BMP180;42191;47.562;9.686;2023-04-03T08:00:24;97366.00;;;10.70
56286;BMP180;42191;47.562;9.686;2023-04-03T08:02:50;97354.00;;;10.80
56286;BMP180;42191;47.562;9.686;2023-04-03T08:05:20;97358.00;;;10.80
56286;BMP180;42191;47.562;9.686;2023-04-03T08:07:47;97361.00;;;10.90
56286;BMP180;42191;47.562;9.686;2023-04-03T08:10:14;97368.00;;;11.00
56286;BMP180;42191;47.562;9.686;2023-04-03T08:12:40;97362.00;;;11.00
56286;BMP180;42191;47.562;9.686;2023-04-03T08:15:07;97363.00;;;11.10
56286;BMP180;42191;47.562;9.686;2023-04-03T08:17:34;97351.00;;;11.10
56286;BMP180;42191;47.562;9.686;2023-04-03T08:20:02;97362.00;;;11.20
56286;BMP180;42191;47.562;9.686;2023-04-03T08:22:29;97361.00;;;11.30
56286;BMP180;42191;47.562;9.686;2023-04-03T08:24:55;97357.00;;;11.30
56286;BMP180;42191;47.562;9.686;2023-04-03T08:27:21;97360.00;;;11.40
56286;BMP180;42191;47.562;9.686;2023-04-03T08:29:47;97359.00;;;11.40
56286;BMP180;42191;47.562;9.686;2023-04-03T08:32:13;97356.00;;;11.50
56286;BMP180;42191;47.562;9.686;2023-04-03T08:34:40;97364.00;;;11.50
56286;BMP180;42191;47.562;9.686;2023-04-03T08:37:06;97353.00;;;11.50
56286;BMP180;42191;47.562;9.686;2023-04-03T08:39:32;97357.00;;;11.60
56286;BMP180;42191;47.562;9.686;2023-04-03T08:42:03;97356.00;;;11.60
56286;BMP180;42191;47.562;9.686;2023-04-03T08:47:40;97367.00;;;11.70
56286;BMP180;42191;47.562;9.686;2023-04-03T08:50:14;97368.00;;;11.80
56286;BMP180;42191;47.562;9.686;2023-04-03T08:52:54;97367.00;;;11.80
56286;BMP180;42191;47.562;9.686;2023-04-03T08:55:50;97365.00;;;11.80
56286;BMP180;42191;47.562;9.686;2023-04-03T08:58:26;97369.00;;;11.90
56286;BMP180;42191;47.562;9.686;2023-04-03T09:01:03;97363.00;;;11.90
56286;BMP180;42191;47.562;9.686;2023-04-03T09:03:36;97374.00;;;12.00
56286;BMP180;42191;47.562;9.686;2023-04-03T09:11:33;97372.00;;;12.20
56286;BMP180;42191;47.562;9.686;2023-04-03T09:17:00;97366.00;;;12.50
56286;BMP180;42191;47.562;9.686;2023-04-03T09:24:39;97372.00;;;12.70
56286;BMP180;42191;47.562;9.686;2023-04-03T09:27:07;97363.00;;;12.80
56286;BMP180;42191;47.562;9.686;2023-04-03T09:29:41;97363.00;;;12.90
56286;BMP180;42191;47.562;9.686;2023-04-03T09:32:38;97368.00;;;13.00
56286;BMP180;42191;47.562;9.686;2023-04-03T09:37:49;97357.00;;;13.20
56286;BMP180;42191;47.562;9.686;2023-04-03T09:42:59;97371.00;;;13.30
56286;BMP180;42191;47.562;9.686;2023-04-03T09:53:41;97363.00;;;13.50
56286;BMP180;42191;47.562;9.686;2023-04-03T09:58:41;97363.00;;;13.70
56286;BMP180;42191;47.562;9.686;2023-04-03T10:01:33;97360.00;;;13.80
56286;BMP180;42191;47.562;9.686;2023-04-03T10:06:56;97365.00;;;14.00
56286;BMP180;42191;47.562;9.686;2023-04-03T10:09:28;97351.00;;;14.10
56286;BMP180;42191;47.562;9.686;2023-04-03T10:14:37;97359.00;;;14.40
56286;BMP180;42191;47.562;9.686;2023-04-03T10:20:02;97355.00;;;14.70
56286;BMP180;42191;47.562;9.686;2023-04-03T10:25:17;97354.00;;;15.00
56286;BMP180;42191;47.562;9.686;2023-04-03T10:36:19;97357.00;;;15.40
56286;BMP180;42191;47.562;9.686;2023-04-03T10:50:07;97342.00;;;15.90
56286;BMP180;42191;47.562;9.686;2023-04-03T10:53:01;97351.00;;;16.00
56286;BMP180;42191;47.562;9.686;2023-04-03T10:55:31;97342.00;;;16.10
56286;BMP180;42191;47.562;9.686;2023-04-03T10:58:00;97342.00;;;16.20
56286;BMP180;42191;47.562;9.686;2023-04-03T11:00:40;97343.00;;;16.20
56286;BMP180;42191;47.562;9.686;2023-04-03T11:03:16;97335.00;;;16.30
56286;BMP180;42191;47.562;9.686;2023-04-03T11:05:51;97342.00;;;16.40
56286;BMP180;42191;47.562;9.686;2023-04-03T11:08:36;97339.00;;;16.40
56286;BMP180;42191;47.562;9.686;2023-04-03T11:11:13;97334.00;;;16.50
56286;BMP180;42191;47.562;9.686;2023-04-03T11:14:10;97327.00;;;16.60
56286;BMP180;42191;47.562;9.686;2023-04-03T11:16:47;97327.00;;;16.60
56286;BMP180;42191;47.562;9.686;2023-04-03T11:19:20;97326.00;;;16.60
56286;BMP180;42191;47.562;9.686;2023-04-03T11:21:57;97319.00;;;16.70
56286;BMP180;42191;47.562;9.686;2023-04-03T11:24:29;97308.00;;;16.70
56286;BMP180;42191;47.562;9.686;2023-04-03T11:26:56;97324.00;;;16.70
56286;BMP180;42191;47.562;9.686;2023-04-03T11:29:28;97318.00;;;16.80
56286;BMP180;42191;47.562;9.686;2023-04-03T11:34:44;97308.00;;;16.90
56286;BMP180;42191;47.562;9.686;2023-04-03T11:37:23;97312.00;;;17.00
56286;BMP180;42191;47.562;9.686;2023-04-03T11:40:06;97313.00;;;17.00
56286;BMP180;42191;47.562;9.686;2023-04-03T11:42:40;97308.00;;;17.10
56286;BMP180;42191;47.562;9.686;2023-04-03T11:50:49;97309.00;;;17.20
56286;BMP180;42191;47.562;9.686;2023-04-03T12:00:46;97303.00;;;17.50
56286;BMP180;42191;47.562;9.686;2023-04-03T12:05:52;97302.00;;;17.60
56286;BMP180;42191;47.562;9.686;2023-04-03T12:16:19;97289.00;;;17.60
56286;BMP180;42191;47.562;9.686;2023-04-03T12:19:41;97283.00;;;17.60
56286;BMP180;42191;47.562;9.686;2023-04-03T12:27:11;97284.00;;;17.60
56286;BMP180;42191;47.562;9.686;2023-04-03T12:29:57;97288.00;;;17.60
56286;BMP180;42191;47.562;9.686;2023-04-03T12:32:43;97272.00;;;17.60
56286;BMP180;42191;47.562;9.686;2023-04-03T12:46:54;97273.00;;;17.80
56286;BMP180;42191;47.562;9.686;2023-04-03T12:49:52;97267.00;;;17.90
56286;BMP180;42191;47.562;9.686;2023-04-03T12:52:39;97275.00;;;17.90
56286;BMP180;42191;47.562;9.686;2023-04-03T12:55:18;97278.00;;;17.90
56286;BMP180;42191;47.562;9.686;2023-04-03T12:57:44;97289.00;;;18.00
56286;BMP180;42191;47.562;9.686;2023-04-03T13:00:33;97275.00;;;18.00
56286;BMP180;42191;47.562;9.686;2023-04-03T13:03:02;97272.00;;;18.00
56286;BMP180;42191;47.562;9.686;2023-04-03T13:05:29;97273.00;;;18.00
56286;BMP180;42191;47.562;9.686;2023-04-03T13:08:05;97275.00;;;18.00
56286;BMP180;42191;47.562;9.686;2023-04-03T13:13:26;97264.00;;;18.10
56286;BMP180;42191;47.562;9.686;2023-04-03T13:15:53;97264.00;;;18.10
56286;BMP180;42191;47.562;9.686;2023-04-03T13:18:33;97254.00;;;18.10
56286;BMP180;42191;47.562;9.686;2023-04-03T13:21:06;97269.00;;;18.10
56286;BMP180;42191;47.562;9.686;2023-04-03T13:23:36;97270.00;;;18.10
56286;BMP180;42191;47.562;9.686;2023-04-03T13:26:04;97270.00;;;18.10
56286;BMP180;42191;47.562;9.686;2023-04-03T13:28:32;97268.00;;;18.10
56286;BMP180;42191;47.562;9.686;2023-04-03T13:31:13;97263.00;;;18.20
56286;BMP180;42191;47.562;9.686;2023-04-03T13:33:59;97264.00;;;18.10
56286;BMP180;42191;47.562;9.686;2023-04-03T13:41:39;97257.00;;;17.90
56286;BMP180;42191;47.562;9.686;2023-04-03T13:46:56;97256.00;;;17.90
56286;BMP180;42191;47.562;9.686;2023-04-03T13:49:38;97249.00;;;18.00
56286;BMP180;42191;47.562;9.686;2023-04-03T13:52:27;97262.00;;;17.90
56286;BMP180;42191;47.562;9.686;2023-04-03T13:54:57;97255.00;;;17.90
56286;BMP180;42191;47.562;9.686;2023-04-03T13:57:24;97247.00;;;17.80
56286;BMP180;42191;47.562;9.686;2023-04-03T13:59:51;97257.00;;;17.80
56286;BMP180;42191;47.562;9.686;2023-04-03T14:02:29;97261.00;;;17.70
56286;BMP180;42191;47.562;9.686;2023-04-03T14:04:58;97267.00;;;17.70
56286;BMP180;42191;47.562;9.686;2023-04-03T14:07:28;97265.00;;;17.60
56286;BMP180;42191;47.562;9.686;2023-04-03T14:09:55;97259.00;;;17.60
56286;BMP180;42191;47.562;9.686;2023-04-03T14:12:48;97264.00;;;17.60
56286;BMP180;42191;47.562;9.686;2023-04-03T14:15:24;97248.00;;;17.60
56286;BMP180;42191;47.562;9.686;2023-04-03T14:17:52;97257.00;;;17.50
56286;BMP180;42191;47.562;9.686;2023-04-03T14:20:21;97247.00;;;17.50
56286;BMP180;42191;47.562;9.686;2023-04-03T14:22:48;97256.00;;;17.50
56286;BMP180;42191;47.562;9.686;2023-04-03T14:25:15;97255.00;;;17.50
56286;BMP180;42191;47.562;9.686;2023-04-03T14:27:44;97233.00;;;17.50
56286;BMP180;42191;47.562;9.686;2023-04-03T14:30:27;97242.00;;;17.50
56286;BMP180;42191;47.562;9.686;2023-04-03T14:32:54;97257.00;;;17.50
56286;BMP180;42191;47.562;9.686;2023-04-03T14:35:21;97253.00;;;17.60
56286;BMP180;42191;47.562;9.686;2023-04-03T14:37:48;97237.00;;;17.60
56286;BMP180;42191;47.562;9.686;2023-04-03T14:40:23;97238.00;;;17.60
56286;BMP180;42191;47.562;9.686;2023-04-03T14:42:50;97232.00;;;17.60
56286;BMP180;42191;47.562;9.686;2023-04-03T14:45:17;97240.00;;;17.50
56286;BMP180;42191;47.562;9.686;2023-04-03T14:47:49;97228.00;;;17.50
56286;BMP180;42191;47.562;9.686;2023-04-03T14:50:19;97221.00;;;17.40
56286;BMP180;42191;47.562;9.686;2023-04-03T14:52:48;97226.00;;;17.30
56286;BMP180;42191;47.562;9.686;2023-04-03T14:55:19;97236.00;;;17.20
56286;BMP180;42191;47.562;9.686;2023-04-03T14:57:46;97225.00;;;17.20
56286;BMP180;42191;47.562;9.686;2023-04-03T15:00:18;97214.00;;;17.10
56286;BMP180;42191;47.562;9.686;2023-04-03T15:02:44;97222.00;;;17.00
56286;BMP180;42191;47.562;9.686;2023-04-03T15:05:12;97230.00;;;17.00
56286;BMP180;42191;47.562;9.686;2023-04-03T15:07:41;97223.00;;;16.90
56286;BMP180;42191;47.562;9.686;2023-04-03T15:12:42;97225.00;;;16.70
56286;BMP180;42191;47.562;9.686;2023-04-03T15:15:09;97229.00;;;16.60
56286;BMP180;42191;47.562;9.686;2023-04-03T15:17:36;97227.00;;;16.50
56286;BMP180;42191;47.562;9.686;2023-04-03T15:20:03;97226.00;;;16.40
56286;BMP180;42191;47.562;9.686;2023-04-03T15:22:29;97236.00;;;16.30
56286;BMP180;42191;47.562;9.686;2023-04-03T15:24:55;97234.00;;;16.20
56286;BMP180;42191;47.562;9.686;2023-04-03T15:27:21;97213.00;;;16.10
56286;BMP180;42191;47.562;9.686;2023-04-03T15:29:47;97229.00;;;16.00
56286;BMP180;42191;47.562;9.686;2023-04-03T15:32:13;97240.00;;;15.90
56286;BMP180;42191;47.562;9.686;2023-04-03T15:34:40;97253.00;;;15.90
56286;BMP180;42191;47.562;9.686;2023-04-03T15:37:06;97230.00;;;15.80
56286;BMP180;42191;47.562;9.686;2023-04-03T15:39:32;97237.00;;;15.70
56286;BMP180;42191;47.562;9.686;2023-04-03T15:41:59;97244.00;;;15.70
56286;BMP180;42191;47.562;9.686;2023-04-03T15:44:32;97240.00;;;15.60
56286;BMP180;42191;47.562;9.686;2023-04-03T15:47:00;97244.00;;;15.50
56286;BMP180;42191;47.562;9.686;2023-04-03T15:49:26;97241.00;;;15.50
56286;BMP180;42191;47.562;9.686;2023-04-03T15:51:53;97236.00;;;15.40
56286;BMP180;42191;47.562;9.686;2023-04-03T15:54:19;97246.00;;;15.30
56286;BMP180;42191;47.562;9.686;2023-04-03T15:56:46;97257.00;;;15.20
56286;BMP180;42191;47.562;9.686;2023-04-03T15:59:12;97237.00;;;15.10
56286;BMP180;42191;47.562;9.686;2023-04-03T16:01:38;97238.00;;;15.10
56286;BMP180;42191;47.562;9.686;2023-04-03T16:04:07;97245.00;;;15.00
56286;BMP180;42191;47.562;9.686;2023-04-03T16:06:34;97236.00;;;14.90
56286;BMP180;42191;47.562;9.686;2023-04-03T16:09:00;97240.00;;;14.80
56286;BMP180;42191;47.562;9.686;2023-04-03T16:11:27;97240.00;;;14.80
56286;BMP180;42191;47.562;9.686;2023-04-03T16:13:56;97234.00;;;14.70
56286;BMP180;42191;47.562;9.686;2023-04-03T16:16:23;97260.00;;;14.60
56286;BMP180;42191;47.562;9.686;2023-04-03T16:18:50;97241.00;;;14.50
56286;BMP180;42191;47.562;9.686;2023-04-03T16:21:17;97239.00;;;14.50
56286;BMP180;42191;47.562;9.686;2023-04-03T16:23:44;97241.00;;;14.40
56286;BMP180;42191;47.562;9.686;2023-04-03T16:26:11;97243.00;;;14.40
56286;BMP180;42191;47.562;9.686;2023-04-03T16:28:37;97245.00;;;14.30
56286;BMP180;42191;47.562;9.686;2023-04-03T16:31:03;97243.00;;;14.20
56286;BMP180;42191;47.562;9.686;2023-04-03T16:33:30;97243.00;;;14.10
56286;BMP180;42191;47.562;9.686;2023-04-03T16:35:56;97242.00;;;14.00
56286;BMP180;42191;47.562;9.686;2023-04-03T16:38:23;97242.00;;;13.90
56286;BMP180;42191;47.562;9.686;2023-04-03T16:40:49;97234.00;;;13.80